createdAt,value
2019-02-25T00:01:19.729Z,7.00
2019-02-25T00:03:47.949Z,6.87
2019-02-25T00:06:16.200Z,8.43
2019-02-25T00:08:44.415Z,7.33
2019-02-25T00:11:12.655Z,7.23
2019-02-25T00:13:41.123Z,7.60
2019-02-25T00:16:09.583Z,7.73
2019-02-25T00:18:37.825Z,8.27
2019-02-25T00:21:06.040Z,7.43
2019-02-25T00:23:34.274Z,7.73
2019-02-25T00:26:02.559Z,7.43
2019-02-25T00:28:30.826Z,7.03
2019-02-25T00:30:59.293Z,7.23
2019-02-25T00:33:27.549Z,6.77
2019-02-25T00:35:56.000Z,6.57
2019-02-25T00:38:24.235Z,7.33
2019-02-25T00:40:52.472Z,7.77
2019-02-25T00:43:20.691Z,7.27
2019-02-25T00:45:48.929Z,7.40
2019-02-25T00:48:17.155Z,6.97
2019-02-25T00:50:45.476Z,8.10
2019-02-25T00:53:13.696Z,7.20
2019-02-25T00:55:41.915Z,7.50
2019-02-25T00:58:10.150Z,7.57
2019-02-25T01:00:38.363Z,7.37
2019-02-25T01:03:06.604Z,7.87
2019-02-25T01:05:34.848Z,7.87
2019-02-25T01:08:03.088Z,7.40
2019-02-25T01:10:31.303Z,7.03
2019-02-25T01:12:59.544Z,7.50
2019-02-25T01:15:27.787Z,7.33
2019-02-25T01:17:56.008Z,6.63
2019-02-25T01:20:24.260Z,7.43
2019-02-25T01:22:52.496Z,9.33
2019-02-25T01:25:20.731Z,7.20
2019-02-25T01:27:48.953Z,7.10
2019-02-25T01:30:19.195Z,7.73
2019-02-25T01:32:47.417Z,7.30
2019-02-25T01:35:15.660Z,7.50
2019-02-25T01:37:43.873Z,7.70
2019-02-25T01:40:15.475Z,8.27
2019-02-25T01:42:43.801Z,7.40
2019-02-25T01:45:14.526Z,7.67
2019-02-25T01:47:42.982Z,7.67
2019-02-25T01:50:11.793Z,8.07
2019-02-25T01:52:40.007Z,7.47
2019-02-25T01:55:09.683Z,7.37
2019-02-25T01:57:37.929Z,8.63
2019-02-25T02:00:09.669Z,8.13
2019-02-25T02:02:37.907Z,7.67
2019-02-25T02:05:06.149Z,8.20
2019-02-25T02:07:34.377Z,7.90
2019-02-25T02:10:02.611Z,7.17
2019-02-25T02:12:32.262Z,7.93
2019-02-25T02:15:00.544Z,8.20
2019-02-25T02:17:28.761Z,7.87
2019-02-25T02:19:57.004Z,7.30
2019-02-25T02:22:25.239Z,7.53
2019-02-25T02:24:53.455Z,7.30
2019-02-25T02:27:21.691Z,7.77
2019-02-25T02:29:49.927Z,7.83
2019-02-25T02:32:18.143Z,7.83
2019-02-25T02:34:46.384Z,7.33
2019-02-25T02:37:14.859Z,7.50
2019-02-25T02:39:43.082Z,7.40
2019-02-25T02:42:15.993Z,6.90
2019-02-25T02:44:46.402Z,7.00
2019-02-25T02:47:26.795Z,7.23
2019-02-25T02:49:55.203Z,7.63
2019-02-25T02:52:23.427Z,7.60
2019-02-25T02:54:51.896Z,7.10
2019-02-25T02:57:20.116Z,7.60
2019-02-25T02:59:48.364Z,7.83
2019-02-25T03:02:16.581Z,6.83
2019-02-25T03:04:44.804Z,7.50
2019-02-25T03:07:13.049Z,7.63
2019-02-25T03:09:41.268Z,7.20
2019-02-25T03:12:09.749Z,7.67
2019-02-25T03:14:37.966Z,7.07
2019-02-25T03:17:06.188Z,7.17
2019-02-25T03:19:34.428Z,7.43
2019-02-25T03:22:02.727Z,7.77
2019-02-25T03:24:30.956Z,7.47
2019-02-25T03:26:59.192Z,7.43
2019-02-25T03:29:27.660Z,7.53
2019-02-25T03:31:55.877Z,7.60
2019-02-25T03:34:24.104Z,7.63
2019-02-25T03:36:52.319Z,8.00
2019-02-25T03:39:20.565Z,7.97
2019-02-25T03:41:48.814Z,7.50
2019-02-25T03:44:17.029Z,8.13
2019-02-25T03:46:45.247Z,7.30
2019-02-25T03:49:13.480Z,7.27
2019-02-25T03:51:41.698Z,8.13
2019-02-25T03:54:09.932Z,7.97
2019-02-25T03:56:38.147Z,7.97
2019-02-25T03:59:06.388Z,6.70
2019-02-25T04:01:34.613Z,7.67
2019-02-25T04:04:02.828Z,7.87
2019-02-25T04:06:31.060Z,7.40
2019-02-25T04:08:59.517Z,7.80
2019-02-25T04:11:27.780Z,7.33
2019-02-25T04:13:56.000Z,7.43
2019-02-25T04:16:24.242Z,7.47
2019-02-25T04:18:52.472Z,7.60
2019-02-25T04:21:20.687Z,7.43
2019-02-25T04:23:49.156Z,7.53
2019-02-25T04:26:17.375Z,7.10
2019-02-25T04:28:45.612Z,7.73
2019-02-25T04:31:13.828Z,7.70
2019-02-25T04:33:42.068Z,7.53
2019-02-25T04:36:10.296Z,8.77
2019-02-25T04:38:38.552Z,8.10
2019-02-25T04:41:06.768Z,7.73
2019-02-25T04:43:34.987Z,8.07
2019-02-25T04:46:03.213Z,7.60
2019-02-25T04:48:31.452Z,7.70
2019-02-25T04:50:59.677Z,7.70
2019-02-25T04:53:27.912Z,7.60
2019-02-25T04:55:56.371Z,7.73
2019-02-25T04:58:24.613Z,8.03
2019-02-25T05:00:52.843Z,7.77
2019-02-25T05:03:21.322Z,8.17
2019-02-25T05:05:49.564Z,7.83
2019-02-25T05:08:17.808Z,7.93
2019-02-25T05:10:46.025Z,8.10
2019-02-25T05:13:14.256Z,7.50
2019-02-25T05:15:42.496Z,8.57
2019-02-25T05:18:10.719Z,7.33
2019-02-25T05:20:38.956Z,7.87
2019-02-25T05:23:07.413Z,7.57
2019-02-25T05:25:35.892Z,7.90
2019-02-25T05:28:04.134Z,7.60
2019-02-25T05:30:32.598Z,8.47
2019-02-25T05:33:00.843Z,7.07
2019-02-25T05:35:29.055Z,8.10
2019-02-25T05:37:57.290Z,8.07
2019-02-25T05:40:25.504Z,8.37
2019-02-25T05:42:53.740Z,7.80
2019-02-25T05:45:21.965Z,7.83
2019-02-25T05:47:50.428Z,7.67
2019-02-25T05:50:22.134Z,7.63
2019-02-25T05:52:50.336Z,7.97
2019-02-25T05:55:18.572Z,8.03
2019-02-25T05:57:46.786Z,7.57
2019-02-25T06:00:19.023Z,7.73
2019-02-25T06:02:47.288Z,7.83
2019-02-25T06:05:15.499Z,7.90
2019-02-25T06:07:43.744Z,7.83
2019-02-25T06:10:12.850Z,7.77
2019-02-25T06:12:41.296Z,7.93
2019-02-25T06:15:11.984Z,8.10
2019-02-25T06:17:40.213Z,8.20
2019-02-25T06:20:10.673Z,7.93
2019-02-25T06:22:39.094Z,7.53
2019-02-25T06:25:09.020Z,8.27
2019-02-25T06:27:37.240Z,7.73
2019-02-25T06:30:16.937Z,8.40
2019-02-25T06:32:45.171Z,7.37
2019-02-25T06:35:13.542Z,8.07
2019-02-25T06:37:41.768Z,8.07
2019-02-25T06:40:15.245Z,7.87
2019-02-25T06:42:42.660Z,8.40
2019-02-25T06:45:13.683Z,7.93
2019-02-25T06:47:41.900Z,8.17
2019-02-25T06:50:10.620Z,8.20
2019-02-25T06:52:38.831Z,7.90
2019-02-25T06:55:16.441Z,8.40
2019-02-25T07:00:24.377Z,8.07
2019-02-25T07:03:05.489Z,8.23
2019-02-25T07:05:50.351Z,9.33
2019-02-25T07:08:32.672Z,8.00
2019-02-25T07:11:18.524Z,7.67
2019-02-25T07:14:03.383Z,7.77
2019-02-25T07:16:45.380Z,7.27
2019-02-25T07:19:44.885Z,7.70
2019-02-25T07:22:27.645Z,8.20
2019-02-25T07:25:09.461Z,7.53
2019-02-25T07:27:51.369Z,7.80
2019-02-25T07:30:50.963Z,8.23
2019-02-25T07:36:26.530Z,8.23
2019-02-25T07:39:26.801Z,8.37
2019-02-25T07:42:26.324Z,8.60
2019-02-25T07:45:26.381Z,8.53
2019-02-25T07:48:08.423Z,7.80
2019-02-25T07:50:50.851Z,8.60
2019-02-25T07:53:51.146Z,7.80
2019-02-25T07:56:35.816Z,8.80
2019-02-25T07:59:17.720Z,8.27
2019-02-25T08:05:07.400Z,8.37
2019-02-25T08:11:10.497Z,8.33
2019-02-25T08:14:10.540Z,8.50
2019-02-25T08:16:53.100Z,8.53
2019-02-25T08:25:40.619Z,8.83
2019-02-25T08:28:25.968Z,8.70
2019-02-25T08:31:25.789Z,8.40
2019-02-25T08:34:25.985Z,9.43
2019-02-25T08:37:25.531Z,8.77
2019-02-25T08:40:25.246Z,8.97
2019-02-25T08:43:07.306Z,8.90
2019-02-25T08:45:52.068Z,8.13
2019-02-25T08:51:39.062Z,9.10
2019-02-25T08:54:19.461Z,9.30
2019-02-25T08:57:00.501Z,8.70
2019-02-25T08:59:41.048Z,8.77
2019-02-25T09:02:21.308Z,8.90
2019-02-25T09:05:02.340Z,9.73
2019-02-25T09:07:43.441Z,9.47
2019-02-25T09:10:24.461Z,9.13
2019-02-25T09:13:05.441Z,9.43
2019-02-25T09:15:46.352Z,8.80
2019-02-25T09:18:27.068Z,9.53
2019-02-25T09:21:08.247Z,9.20
2019-02-25T09:23:49.144Z,9.00
2019-02-25T09:26:29.889Z,9.13
2019-02-25T09:29:10.948Z,8.97
2019-02-25T09:31:51.553Z,8.97
2019-02-25T09:34:32.496Z,8.97
2019-02-25T09:37:13.392Z,9.03
2019-02-25T09:39:54.457Z,9.17
2019-02-25T09:42:34.793Z,8.83
2019-02-25T09:45:15.627Z,8.77
2019-02-25T09:47:56.668Z,8.80
2019-02-25T09:50:37.843Z,9.57
2019-02-25T09:53:18.413Z,8.90
2019-02-25T09:55:59.525Z,8.57
2019-02-25T10:01:45.799Z,8.53
2019-02-25T10:07:45.543Z,8.60
2019-02-25T10:10:26.432Z,8.73
2019-02-25T10:13:07.598Z,8.60
2019-02-25T10:15:48.965Z,8.40
2019-02-25T10:18:29.242Z,7.70
2019-02-25T10:21:09.816Z,8.70
2019-02-25T10:23:50.900Z,8.77
2019-02-25T10:26:31.017Z,8.67
2019-02-25T10:29:12.064Z,7.90
2019-02-25T10:31:53.066Z,8.13
2019-02-25T10:34:34.216Z,9.07
2019-02-25T10:37:15.626Z,8.60
2019-02-25T10:39:57.013Z,8.73
2019-02-25T10:42:37.747Z,8.37
2019-02-25T10:45:18.426Z,7.83
2019-02-25T10:47:59.170Z,8.63
2019-02-25T10:50:40.910Z,8.07
2019-02-25T10:53:22.094Z,8.67
2019-02-25T10:56:03.135Z,8.50
2019-02-25T10:58:43.789Z,8.10
2019-02-25T11:01:24.823Z,7.77
2019-02-25T11:04:05.189Z,8.17
2019-02-25T11:06:45.872Z,11.10
2019-02-25T11:09:27.678Z,10.00
2019-02-25T11:12:09.081Z,15.03
2019-02-25T11:14:50.165Z,14.90
2019-02-25T11:17:31.328Z,16.33
2019-02-25T11:20:12.500Z,19.77
2019-02-25T11:22:53.520Z,14.90
2019-02-25T11:25:34.681Z,14.50
2019-02-25T11:28:25.141Z,14.67
2019-02-25T11:30:58.633Z,11.53
2019-02-25T11:33:39.977Z,17.20
2019-02-25T11:36:10.440Z,13.10
2019-02-25T11:38:38.429Z,21.90
2019-02-25T11:41:08.911Z,10.20
2019-02-25T11:43:36.683Z,12.83
2019-02-25T11:46:04.935Z,10.47
2019-02-25T11:48:33.273Z,14.07
2019-02-25T11:51:01.507Z,13.77
2019-02-25T11:53:29.728Z,13.83
2019-02-25T11:55:57.973Z,28.17
2019-02-25T11:58:26.469Z,22.60
2019-02-25T12:00:54.722Z,24.23
2019-02-25T12:03:23.096Z,26.93
2019-02-25T12:05:52.559Z,26.40
2019-02-25T12:08:20.970Z,36.70
2019-02-25T12:10:49.188Z,29.23
2019-02-25T12:13:17.453Z,98.17
2019-02-25T12:15:45.693Z,74.67
2019-02-25T12:18:13.919Z,52.07
2019-02-25T12:20:42.172Z,44.17
2019-02-25T12:23:10.427Z,34.47
2019-02-25T12:25:38.663Z,62.73
2019-02-25T12:28:06.885Z,47.50
2019-02-25T12:30:35.440Z,147.13
2019-02-25T12:33:03.664Z,63.97
2019-02-25T12:35:31.908Z,50.57
2019-02-25T12:38:00.152Z,50.57
2019-02-25T12:40:28.756Z,30.50
2019-02-25T12:42:57.084Z,42.27
2019-02-25T12:45:25.388Z,36.17
2019-02-25T12:47:53.603Z,47.20
2019-02-25T12:50:21.928Z,30.90
2019-02-25T12:52:50.408Z,25.83
2019-02-25T12:55:19.513Z,29.90
2019-02-25T12:57:47.786Z,49.27
2019-02-25T13:00:20.116Z,68.83
2019-02-25T13:02:48.342Z,65.63
2019-02-25T13:05:24.797Z,126.30
2019-02-25T13:07:53.047Z,70.80
2019-02-25T13:10:21.297Z,51.13
2019-02-25T13:12:51.506Z,55.67
2019-02-25T13:15:21.591Z,52.03
2019-02-25T13:17:49.892Z,51.45
2019-02-25T13:20:18.136Z,38.05
2019-02-25T13:22:46.366Z,42.17
2019-02-25T13:25:19.374Z,38.95
2019-02-25T13:27:48.336Z,29.32
2019-02-25T13:30:17.303Z,31.97
2019-02-25T13:32:45.707Z,34.43
2019-02-25T13:35:14.848Z,41.10
2019-02-25T13:37:43.262Z,28.13
2019-02-25T13:40:17.764Z,29.65
2019-02-25T13:42:46.323Z,18.77
2019-02-25T13:45:18.738Z,27.60
2019-02-25T13:47:47.036Z,24.27
2019-02-25T13:50:18.480Z,21.83
2019-02-25T13:52:48.570Z,23.37
2019-02-25T13:55:18.659Z,33.50
2019-02-25T13:57:46.976Z,32.70
2019-02-25T14:00:23.312Z,24.10
2019-02-25T14:02:51.626Z,20.90
2019-02-25T14:05:20.271Z,22.47
2019-02-25T14:07:48.520Z,17.67
2019-02-25T14:10:17.480Z,18.67
2019-02-25T14:12:45.800Z,18.33
2019-02-25T14:15:23.372Z,20.57
2019-02-25T14:17:51.696Z,20.73
2019-02-25T14:20:21.916Z,16.80
2019-02-25T14:22:50.393Z,17.17
2019-02-25T14:25:21.680Z,10.90
2019-02-25T14:27:50.161Z,17.00
2019-02-25T14:30:21.050Z,11.43
2019-02-25T14:32:53.090Z,11.53
2019-02-25T14:35:19.880Z,17.17
2019-02-25T14:37:48.100Z,12.83
2019-02-25T14:40:19.065Z,13.60
2019-02-25T14:42:49.474Z,15.47
2019-02-25T14:45:21.626Z,15.37
2019-02-25T14:47:49.728Z,11.43
2019-02-25T14:50:20.722Z,15.67
2019-02-25T14:52:49.285Z,13.70
2019-02-25T14:55:17.535Z,10.33
2019-02-25T14:57:45.856Z,12.47
2019-02-25T15:00:24.287Z,10.47
2019-02-25T15:02:52.904Z,8.80
2019-02-25T15:05:21.662Z,8.07
2019-02-25T15:07:51.170Z,10.43
2019-02-25T15:10:20.013Z,9.33
2019-02-25T15:12:48.264Z,10.47
2019-02-25T15:15:20.603Z,7.90
2019-02-25T15:17:50.377Z,9.73
2019-02-25T15:20:21.484Z,11.43
2019-02-25T15:22:50.940Z,9.70
2019-02-25T15:25:19.819Z,10.77
2019-02-25T15:27:48.302Z,9.83
2019-02-25T15:30:28.355Z,9.63
2019-02-25T15:32:58.912Z,9.80
2019-02-25T15:35:31.508Z,9.07
2019-02-25T15:37:57.892Z,9.77
2019-02-25T15:40:27.398Z,9.20
2019-02-25T15:43:12.545Z,9.97
2019-02-25T15:45:42.530Z,9.13
2019-02-25T15:48:19.587Z,7.63
2019-02-25T15:50:50.668Z,8.47
2019-02-25T15:53:19.563Z,7.57
2019-02-25T15:55:47.788Z,9.23
2019-02-25T15:58:16.315Z,6.47
2019-02-25T16:00:45.281Z,7.87
2019-02-25T16:03:13.715Z,6.73
2019-02-25T16:05:44.027Z,7.20
2019-02-25T16:08:16.166Z,7.30
2019-02-25T16:10:42.282Z,7.43
2019-02-25T16:13:14.139Z,8.30
2019-02-25T16:15:40.771Z,8.50
2019-02-25T16:18:09.004Z,8.43
2019-02-25T16:20:37.271Z,9.43
2019-02-25T16:23:07.653Z,7.80
2019-02-25T16:25:35.749Z,6.63
2019-02-25T16:28:05.651Z,7.87
2019-02-25T16:30:34.113Z,5.43
2019-02-25T16:33:04.998Z,5.93
2019-02-25T16:35:32.314Z,5.93
2019-02-25T16:38:02.438Z,8.43
2019-02-25T16:40:31.489Z,7.37
2019-02-25T16:43:02.784Z,7.53
2019-02-25T16:45:34.763Z,5.67
2019-02-25T16:48:00.416Z,7.30
2019-02-25T16:50:28.793Z,5.17
2019-02-25T16:52:57.075Z,7.17
2019-02-25T16:55:27.626Z,6.93
2019-02-25T16:57:55.665Z,5.50
2019-02-25T17:00:29.402Z,7.67
2019-02-25T17:02:59.292Z,6.30
2019-02-25T17:05:25.826Z,7.80
2019-02-25T17:07:55.967Z,4.93
2019-02-25T17:10:29.149Z,5.73
2019-02-25T17:12:56.795Z,6.80
2019-02-25T17:15:26.973Z,5.73
2019-02-25T17:17:58.359Z,6.20
2019-02-25T17:20:27.810Z,7.27
2019-02-25T17:22:55.248Z,5.47
2019-02-25T17:25:26.816Z,6.20
2019-02-25T17:27:53.495Z,5.57
2019-02-25T17:30:25.733Z,6.07
2019-02-25T17:32:54.078Z,5.77
2019-02-25T17:35:25.516Z,5.47
2019-02-25T17:37:53.856Z,6.53
2019-02-25T17:40:23.235Z,7.30
2019-02-25T17:42:53.759Z,5.93
2019-02-25T17:45:25.098Z,6.13
2019-02-25T17:47:58.296Z,5.30
2019-02-25T17:50:23.098Z,5.10
2019-02-25T17:52:51.420Z,5.97
2019-02-25T17:55:21.733Z,4.63
2019-02-25T17:57:51.582Z,4.97
2019-02-25T18:00:31.965Z,6.17
2019-02-25T18:03:01.506Z,5.30
2019-02-25T18:05:31.939Z,4.57
2019-02-25T18:08:02.798Z,4.53
2019-02-25T18:10:31.489Z,5.27
2019-02-25T18:13:01.267Z,4.70
2019-02-25T18:15:35.799Z,5.30
2019-02-25T18:18:07.098Z,4.50
2019-02-25T18:20:34.063Z,5.47
2019-02-25T18:23:04.960Z,4.80
2019-02-25T18:25:33.725Z,5.00
2019-02-25T18:28:04.413Z,5.00
2019-02-25T18:30:33.818Z,4.30
2019-02-25T18:33:04.639Z,4.97
2019-02-25T18:35:33.943Z,4.40
2019-02-25T18:38:03.146Z,4.50
2019-02-25T18:40:33.461Z,5.23
2019-02-25T18:43:02.373Z,8.10
2019-02-25T18:45:32.778Z,4.47
2019-02-25T18:48:01.172Z,6.20
2019-02-25T18:50:30.898Z,6.07
2019-02-25T18:53:01.198Z,5.40
2019-02-25T18:55:29.807Z,4.80
2019-02-25T18:57:59.144Z,5.43
2019-02-25T19:00:35.881Z,5.10
2019-02-25T19:03:04.874Z,4.87
2019-02-25T19:05:33.171Z,6.93
2019-02-25T19:08:01.866Z,5.00
2019-02-25T19:10:30.120Z,4.73
2019-02-25T19:12:59.192Z,5.27
2019-02-25T19:15:28.380Z,4.93
2019-02-25T19:17:56.615Z,4.60
2019-02-25T19:20:25.228Z,4.90
2019-02-25T19:22:55.644Z,5.20
2019-02-25T19:25:25.287Z,4.73
2019-02-25T19:27:54.382Z,5.10
2019-02-25T19:30:24.810Z,4.97
2019-02-25T19:32:53.757Z,4.47
2019-02-25T19:35:25.761Z,4.63
2019-02-25T19:37:52.086Z,4.87
2019-02-25T19:40:22.541Z,4.83
2019-02-25T19:42:52.204Z,4.57
2019-02-25T19:45:21.332Z,5.33
2019-02-25T19:47:49.564Z,5.83
2019-02-25T19:50:21.445Z,4.83
2019-02-25T19:52:49.662Z,5.67
2019-02-25T19:55:20.483Z,6.23
2019-02-25T19:57:47.913Z,4.80
2019-02-25T20:00:24.981Z,5.10
2019-02-25T20:02:53.063Z,5.50
2019-02-25T20:05:22.294Z,5.07
2019-02-25T20:07:51.236Z,5.63
2019-02-25T20:10:19.536Z,5.47
2019-02-25T20:12:50.048Z,4.90
2019-02-25T20:15:24.720Z,5.30
2019-02-25T20:17:52.826Z,5.30
2019-02-25T20:20:20.660Z,5.47
2019-02-25T20:22:48.908Z,4.90
2019-02-25T20:25:19.378Z,5.20
2019-02-25T20:27:47.615Z,4.53
2019-02-25T20:30:19.758Z,4.63
2019-02-25T20:32:49.010Z,4.43
2019-02-25T20:35:19.886Z,6.17
2019-02-25T20:37:52.867Z,5.37
2019-02-25T20:40:21.166Z,4.83
2019-02-25T20:42:50.913Z,5.33
2019-02-25T20:45:23.659Z,5.93
2019-02-25T20:47:52.730Z,4.90
2019-02-25T20:50:22.457Z,4.57
2019-02-25T20:52:50.700Z,4.80
2019-02-25T20:55:18.988Z,4.70
2019-02-25T20:57:47.233Z,4.87
2019-02-25T21:00:23.453Z,5.73
2019-02-25T21:02:51.699Z,4.90
2019-02-25T21:05:22.329Z,4.40
2019-02-25T21:07:50.436Z,5.03
2019-02-25T21:10:19.842Z,5.33
2019-02-25T21:12:48.061Z,5.00
2019-02-25T21:15:19.864Z,5.30
2019-02-25T21:17:48.079Z,5.50
2019-02-25T21:20:16.755Z,5.70
2019-02-25T21:22:44.979Z,5.63
2019-02-25T21:25:14.255Z,4.97
2019-02-25T21:27:42.500Z,5.47
2019-02-25T21:30:21.112Z,5.30
2019-02-25T21:32:50.125Z,5.77
2019-02-25T21:35:23.496Z,6.07
2019-02-25T21:37:50.812Z,6.07
2019-02-25T21:40:26.823Z,6.30
2019-02-25T21:42:56.383Z,6.13
2019-02-25T21:45:26.915Z,6.53
2019-02-25T21:47:56.503Z,6.47
2019-02-25T21:50:26.299Z,6.57
2019-02-25T21:52:54.320Z,6.67
2019-02-25T21:55:23.744Z,6.67
2019-02-25T21:57:54.521Z,6.63
2019-02-25T22:00:26.820Z,5.90
2019-02-25T22:02:54.857Z,6.67
2019-02-25T22:05:23.684Z,6.77
2019-02-25T22:07:54.357Z,6.93
2019-02-25T22:10:21.987Z,7.10
2019-02-25T22:12:50.203Z,6.10
2019-02-25T22:15:20.390Z,6.60
2019-02-25T22:17:50.662Z,6.10
2019-02-25T22:20:21.776Z,6.87
2019-02-25T22:22:52.293Z,6.50
2019-02-25T22:25:23.633Z,6.80
2019-02-25T22:27:51.856Z,6.57
2019-02-25T22:30:20.084Z,6.70
2019-02-25T22:32:48.307Z,6.30
2019-02-25T22:35:16.544Z,6.47
2019-02-25T22:37:49.236Z,6.90
2019-02-25T22:40:17.174Z,7.07
2019-02-25T22:42:47.921Z,6.30
2019-02-25T22:45:19.684Z,6.47
2019-02-25T22:47:47.919Z,6.20
2019-02-25T22:50:16.278Z,6.83
2019-02-25T22:52:44.563Z,6.57
2019-02-25T22:55:15.284Z,5.70
2019-02-25T22:57:45.674Z,6.70
2019-02-25T23:00:29.991Z,6.33
2019-02-25T23:02:58.555Z,6.70
2019-02-25T23:05:26.843Z,6.63
2019-02-25T23:07:55.095Z,6.70
2019-02-25T23:10:24.178Z,6.63
2019-02-25T23:12:52.608Z,7.20
2019-02-25T23:15:22.687Z,6.83
2019-02-25T23:17:50.787Z,7.07
2019-02-25T23:20:19.244Z,7.17
2019-02-25T23:22:47.523Z,7.67
2019-02-25T23:25:15.753Z,7.67
2019-02-25T23:27:43.991Z,7.73
2019-02-25T23:30:13.245Z,7.50
2019-02-25T23:32:41.493Z,7.90
2019-02-25T23:35:13.647Z,8.20
2019-02-25T23:37:39.667Z,8.40
2019-02-25T23:40:14.020Z,9.40
2019-02-25T23:42:44.106Z,8.80
2019-02-25T23:45:15.182Z,9.83
2019-02-25T23:47:42.977Z,9.60
2019-02-25T23:50:17.148Z,10.20
2019-02-25T23:52:45.363Z,10.10
2019-02-25T23:55:16.559Z,11.07
2019-02-25T23:57:43.824Z,11.40
